sensor_id;sensor_type;location;lat;lon;timestamp;temperature;humidity
26541;DHT22;14206;50.202;10.948;2023-04-25T00:00:53;9.50;94.10
26541;DHT22;14206;50.202;10.948;2023-04-25T00:03:20;9.50;94.60
26541;DHT22;14206;50.202;10.948;2023-04-25T00:05:48;9.50;94.50
26541;DHT22;14206;50.202;10.948;2023-04-25T00:08:15;9.50;94.60
26541;DHT22;14206;50.202;10.948;2023-04-25T00:10:42;9.50;94.10
26541;DHT22;14206;50.202;10.948;2023-04-25T00:13:09;9.50;94.30
26541;DHT22;14206;50.202;10.948;2023-04-25T00:15:37;9.50;94.40
26541;DHT22;14206;50.202;10.948;2023-04-25T00:18:05;9.40;94.80
26541;DHT22;14206;50.202;10.948;2023-04-25T00:20:33;9.40;94.90
26541;DHT22;14206;50.202;10.948;2023-04-25T00:23:00;9.40;94.60
26541;DHT22;14206;50.202;10.948;2023-04-25T00:25:26;9.40;94.50
26541;DHT22;14206;50.202;10.948;2023-04-25T00:27:53;9.40;94.40
26541;DHT22;14206;50.202;10.948;2023-04-25T00:30:20;9.30;94.80
26541;DHT22;14206;50.202;10.948;2023-04-25T00:32:47;9.20;94.80
26541;DHT22;14206;50.202;10.948;2023-04-25T00:35:15;9.20;95.20
26541;DHT22;14206;50.202;10.948;2023-04-25T00:37:42;9.20;95.30
26541;DHT22;14206;50.202;10.948;2023-04-25T00:40:09;9.20;95.30
26541;DHT22;14206;50.202;10.948;2023-04-25T00:42:37;9.20;95.60
26541;DHT22;14206;50.202;10.948;2023-04-25T00:45:05;9.20;95.70
26541;DHT22;14206;50.202;10.948;2023-04-25T00:47:34;9.10;96.00
26541;DHT22;14206;50.202;10.948;2023-04-25T00:50:02;9.20;96.10
26541;DHT22;14206;50.202;10.948;2023-04-25T00:52:29;9.20;96.00
26541;DHT22;14206;50.202;10.948;2023-04-25T00:54:56;9.20;95.90
26541;DHT22;14206;50.202;10.948;2023-04-25T00:57:23;9.20;96.10
26541;DHT22;14206;50.202;10.948;2023-04-25T00:59:51;9.30;95.90
26541;DHT22;14206;50.202;10.948;2023-04-25T01:02:19;9.20;96.20
26541;DHT22;14206;50.202;10.948;2023-04-25T01:04:48;9.30;96.10
26541;DHT22;14206;50.202;10.948;2023-04-25T01:07:15;9.30;95.60
26541;DHT22;14206;50.202;10.948;2023-04-25T01:09:42;9.30;95.60
26541;DHT22;14206;50.202;10.948;2023-04-25T01:12:09;9.30;95.50
26541;DHT22;14206;50.202;10.948;2023-04-25T01:14:36;9.30;95.60
26541;DHT22;14206;50.202;10.948;2023-04-25T01:17:04;9.30;96.10
26541;DHT22;14206;50.202;10.948;2023-04-25T01:19:32;9.30;95.90
26541;DHT22;14206;50.202;10.948;2023-04-25T01:21:58;9.30;95.80
26541;DHT22;14206;50.202;10.948;2023-04-25T01:24:26;9.30;95.60
26541;DHT22;14206;50.202;10.948;2023-04-25T01:26:55;9.30;95.70
26541;DHT22;14206;50.202;10.948;2023-04-25T01:29:24;9.30;96.00
26541;DHT22;14206;50.202;10.948;2023-04-25T01:31:52;9.30;96.10
26541;DHT22;14206;50.202;10.948;2023-04-25T01:34:19;9.30;96.00
26541;DHT22;14206;50.202;10.948;2023-04-25T01:36:50;9.20;96.40
26541;DHT22;14206;50.202;10.948;2023-04-25T01:39:18;9.20;96.50
26541;DHT22;14206;50.202;10.948;2023-04-25T01:41:46;9.20;96.60
26541;DHT22;14206;50.202;10.948;2023-04-25T01:44:14;9.30;96.60
26541;DHT22;14206;50.202;10.948;2023-04-25T01:46:41;9.30;96.20
26541;DHT22;14206;50.202;10.948;2023-04-25T01:49:10;9.20;96.60
26541;DHT22;14206;50.202;10.948;2023-04-25T01:51:37;9.20;96.60
26541;DHT22;14206;50.202;10.948;2023-04-25T01:54:04;9.20;96.60
26541;DHT22;14206;50.202;10.948;2023-04-25T01:56:32;9.20;96.60
26541;DHT22;14206;50.202;10.948;2023-04-25T01:59:00;9.20;96.60
26541;DHT22;14206;50.202;10.948;2023-04-25T02:01:45;9.20;96.60
26541;DHT22;14206;50.202;10.948;2023-04-25T02:04:21;9.20;96.60
26541;DHT22;14206;50.202;10.948;2023-04-25T02:06:48;9.20;96.60
26541;DHT22;14206;50.202;10.948;2023-04-25T02:09:15;9.30;96.60
26541;DHT22;14206;50.202;10.948;2023-04-25T02:11:47;9.30;96.60
26541;DHT22;14206;50.202;10.948;2023-04-25T02:14:32;9.30;96.60
26541;DHT22;14206;50.202;10.948;2023-04-25T02:17:07;9.40;96.60
26541;DHT22;14206;50.202;10.948;2023-04-25T02:19:34;9.50;96.60
26541;DHT22;14206;50.202;10.948;2023-04-25T02:22:01;9.50;96.60
26541;DHT22;14206;50.202;10.948;2023-04-25T02:24:27;9.50;96.60
26541;DHT22;14206;50.202;10.948;2023-04-25T02:26:55;9.50;96.60
26541;DHT22;14206;50.202;10.948;2023-04-25T02:29:22;9.60;96.60
26541;DHT22;14206;50.202;10.948;2023-04-25T02:31:49;9.70;96.60
26541;DHT22;14206;50.202;10.948;2023-04-25T02:34:16;9.70;96.60
26541;DHT22;14206;50.202;10.948;2023-04-25T02:36:43;9.70;96.60
26541;DHT22;14206;50.202;10.948;2023-04-25T02:39:10;9.70;96.60
26541;DHT22;14206;50.202;10.948;2023-04-25T02:41:38;9.70;96.60
26541;DHT22;14206;50.202;10.948;2023-04-25T02:44:04;9.70;96.60
26541;DHT22;14206;50.202;10.948;2023-04-25T02:46:31;9.70;96.60
26541;DHT22;14206;50.202;10.948;2023-04-25T02:49:03;9.70;96.60
26541;DHT22;14206;50.202;10.948;2023-04-25T02:51:31;9.70;96.60
26541;DHT22;14206;50.202;10.948;2023-04-25T02:53:59;9.70;96.60
26541;DHT22;14206;50.202;10.948;2023-04-25T02:56:26;9.70;96.60
26541;DHT22;14206;50.202;10.948;2023-04-25T02:58:53;9.70;96.60
26541;DHT22;14206;50.202;10.948;2023-04-25T03:01:20;9.60;96.60
26541;DHT22;14206;50.202;10.948;2023-04-25T03:03:47;9.60;96.60
26541;DHT22;14206;50.202;10.948;2023-04-25T03:06:15;9.60;96.60
26541;DHT22;14206;50.202;10.948;2023-04-25T03:08:42;9.60;96.60
26541;DHT22;14206;50.202;10.948;2023-04-25T03:11:09;9.60;96.60
26541;DHT22;14206;50.202;10.948;2023-04-25T03:13:37;9.50;96.60
26541;DHT22;14206;50.202;10.948;2023-04-25T03:16:04;9.30;96.60
26541;DHT22;14206;50.202;10.948;2023-04-25T03:18:32;9.30;96.60
26541;DHT22;14206;50.202;10.948;2023-04-25T03:20:58;9.20;96.60
26541;DHT22;14206;50.202;10.948;2023-04-25T03:23:26;9.20;96.60
26541;DHT22;14206;50.202;10.948;2023-04-25T03:25:53;9.20;96.60
26541;DHT22;14206;50.202;10.948;2023-04-25T03:28:20;9.20;96.60
26541;DHT22;14206;50.202;10.948;2023-04-25T03:30:47;9.20;96.60
26541;DHT22;14206;50.202;10.948;2023-04-25T03:33:14;9.30;96.60
26541;DHT22;14206;50.202;10.948;2023-04-25T03:35:41;9.30;96.60
26541;DHT22;14206;50.202;10.948;2023-04-25T03:38:09;9.40;96.60
26541;DHT22;14206;50.202;10.948;2023-04-25T03:40:39;9.40;96.60
26541;DHT22;14206;50.202;10.948;2023-04-25T03:43:22;9.30;96.60
26541;DHT22;14206;50.202;10.948;2023-04-25T03:45:54;9.30;96.60
26541;DHT22;14206;50.202;10.948;2023-04-25T03:48:22;9.20;96.60
26541;DHT22;14206;50.202;10.948;2023-04-25T03:50:53;9.20;96.60
26541;DHT22;14206;50.202;10.948;2023-04-25T03:53:20;9.20;96.60
26541;DHT22;14206;50.202;10.948;2023-04-25T03:56:06;9.20;96.60
26541;DHT22;14206;50.202;10.948;2023-04-25T03:58:35;9.20;96.60
26541;DHT22;14206;50.202;10.948;2023-04-25T04:01:02;9.20;96.60
26541;DHT22;14206;50.202;10.948;2023-04-25T04:03:36;9.20;96.60
26541;DHT22;14206;50.202;10.948;2023-04-25T04:06:05;9.10;96.60
26541;DHT22;14206;50.202;10.948;2023-04-25T04:08:35;9.00;96.60
26541;DHT22;14206;50.202;10.948;2023-04-25T04:11:02;9.00;96.60
26541;DHT22;14206;50.202;10.948;2023-04-25T04:13:29;8.90;96.60
26541;DHT22;14206;50.202;10.948;2023-04-25T04:15:56;8.90;96.60
26541;DHT22;14206;50.202;10.948;2023-04-25T04:18:24;8.90;96.60
26541;DHT22;14206;50.202;10.948;2023-04-25T04:20:52;8.80;96.60
26541;DHT22;14206;50.202;10.948;2023-04-25T04:23:19;8.80;96.60
26541;DHT22;14206;50.202;10.948;2023-04-25T04:25:47;8.90;96.60
26541;DHT22;14206;50.202;10.948;2023-04-25T04:28:37;8.90;96.60
26541;DHT22;14206;50.202;10.948;2023-04-25T04:31:12;8.90;96.60
26541;DHT22;14206;50.202;10.948;2023-04-25T04:33:39;8.90;96.60
26541;DHT22;14206;50.202;10.948;2023-04-25T04:36:07;8.90;96.60
26541;DHT22;14206;50.202;10.948;2023-04-25T04:38:34;8.90;96.60
26541;DHT22;14206;50.202;10.948;2023-04-25T04:41:04;8.90;96.60
26541;DHT22;14206;50.202;10.948;2023-04-25T04:43:39;8.90;96.60
26541;DHT22;14206;50.202;10.948;2023-04-25T04:46:22;8.90;96.60
26541;DHT22;14206;50.202;10.948;2023-04-25T04:49:17;8.90;96.60
26541;DHT22;14206;50.202;10.948;2023-04-25T04:52:10;8.80;96.60
26541;DHT22;14206;50.202;10.948;2023-04-25T04:54:59;8.80;96.60
26541;DHT22;14206;50.202;10.948;2023-04-25T04:57:42;8.90;96.60
26541;DHT22;14206;50.202;10.948;2023-04-25T05:00:23;8.90;96.60
26541;DHT22;14206;50.202;10.948;2023-04-25T05:03:27;9.00;96.60
26541;DHT22;14206;50.202;10.948;2023-04-25T05:06:00;9.00;96.60
26541;DHT22;14206;50.202;10.948;2023-04-25T05:08:37;9.00;96.60
26541;DHT22;14206;50.202;10.948;2023-04-25T05:11:24;9.00;96.60
26541;DHT22;14206;50.202;10.948;2023-04-25T05:14:14;9.10;96.60
26541;DHT22;14206;50.202;10.948;2023-04-25T05:16:57;9.10;96.60
26541;DHT22;14206;50.202;10.948;2023-04-25T05:19:35;9.10;96.60
26541;DHT22;14206;50.202;10.948;2023-04-25T05:22:35;9.10;96.60
26541;DHT22;14206;50.202;10.948;2023-04-25T05:25:16;9.20;96.60
26541;DHT22;14206;50.202;10.948;2023-04-25T05:27:49;9.10;96.60
26541;DHT22;14206;50.202;10.948;2023-04-25T05:30:27;9.20;96.60
26541;DHT22;14206;50.202;10.948;2023-04-25T05:33:05;9.20;96.60
26541;DHT22;14206;50.202;10.948;2023-04-25T05:35:32;9.30;96.60
26541;DHT22;14206;50.202;10.948;2023-04-25T05:37:59;9.30;96.60
26541;DHT22;14206;50.202;10.948;2023-04-25T05:40:52;9.30;96.60
26541;DHT22;14206;50.202;10.948;2023-04-25T05:43:38;9.30;96.60
26541;DHT22;14206;50.202;10.948;2023-04-25T05:46:19;9.30;96.60
26541;DHT22;14206;50.202;10.948;2023-04-25T05:49:05;9.40;96.60
26541;DHT22;14206;50.202;10.948;2023-04-25T05:51:55;9.50;96.60
26541;DHT22;14206;50.202;10.948;2023-04-25T05:54:31;9.60;96.60
26541;DHT22;14206;50.202;10.948;2023-04-25T05:56:58;9.60;96.60
26541;DHT22;14206;50.202;10.948;2023-04-25T05:59:25;9.70;96.60
26541;DHT22;14206;50.202;10.948;2023-04-25T06:01:52;9.80;96.30
26541;DHT22;14206;50.202;10.948;2023-04-25T06:04:20;9.90;96.40
26541;DHT22;14206;50.202;10.948;2023-04-25T06:06:47;10.20;96.40
26541;DHT22;14206;50.202;10.948;2023-04-25T06:09:14;10.40;95.20
26541;DHT22;14206;50.202;10.948;2023-04-25T06:11:41;10.50;94.50
26541;DHT22;14206;50.202;10.948;2023-04-25T06:14:08;10.70;93.80
26541;DHT22;14206;50.202;10.948;2023-04-25T06:16:39;10.70;93.00
26541;DHT22;14206;50.202;10.948;2023-04-25T06:19:06;10.60;91.90
26541;DHT22;14206;50.202;10.948;2023-04-25T06:21:33;10.50;92.60
26541;DHT22;14206;50.202;10.948;2023-04-25T06:24:00;10.40;92.70
26541;DHT22;14206;50.202;10.948;2023-04-25T06:26:27;10.30;92.80
26541;DHT22;14206;50.202;10.948;2023-04-25T06:28:54;10.20;93.00
26541;DHT22;14206;50.202;10.948;2023-04-25T06:31:21;10.20;92.40
26541;DHT22;14206;50.202;10.948;2023-04-25T06:33:49;10.20;93.10
26541;DHT22;14206;50.202;10.948;2023-04-25T06:36:16;10.30;93.20
26541;DHT22;14206;50.202;10.948;2023-04-25T06:38:47;10.40;92.40
26541;DHT22;14206;50.202;10.948;2023-04-25T06:41:14;10.70;92.80
26541;DHT22;14206;50.202;10.948;2023-04-25T06:43:41;11.10;92.60
26541;DHT22;14206;50.202;10.948;2023-04-25T06:46:28;11.40;91.80
26541;DHT22;14206;50.202;10.948;2023-04-25T06:48:57;11.40;90.30
26541;DHT22;14206;50.202;10.948;2023-04-25T06:51:24;11.50;89.60
26541;DHT22;14206;50.202;10.948;2023-04-25T06:53:55;11.50;89.30
26541;DHT22;14206;50.202;10.948;2023-04-25T06:56:28;11.60;87.90
26541;DHT22;14206;50.202;10.948;2023-04-25T06:59:07;11.70;87.90
26541;DHT22;14206;50.202;10.948;2023-04-25T07:01:36;11.90;87.70
26541;DHT22;14206;50.202;10.948;2023-04-25T07:04:09;12.10;88.10
26541;DHT22;14206;50.202;10.948;2023-04-25T07:06:43;12.30;87.90
26541;DHT22;14206;50.202;10.948;2023-04-25T07:09:11;12.30;86.10
26541;DHT22;14206;50.202;10.948;2023-04-25T07:11:38;12.30;87.40
26541;DHT22;14206;50.202;10.948;2023-04-25T07:14:06;12.20;85.90
26541;DHT22;14206;50.202;10.948;2023-04-25T07:16:33;12.20;86.30
26541;DHT22;14206;50.202;10.948;2023-04-25T07:19:01;12.30;84.50
26541;DHT22;14206;50.202;10.948;2023-04-25T07:21:28;12.30;82.60
26541;DHT22;14206;50.202;10.948;2023-04-25T07:23:55;12.30;82.70
26541;DHT22;14206;50.202;10.948;2023-04-25T07:26:27;12.50;84.60
26541;DHT22;14206;50.202;10.948;2023-04-25T07:29:27;13.10;80.80
26541;DHT22;14206;50.202;10.948;2023-04-25T07:31:54;13.50;78.00
26541;DHT22;14206;50.202;10.948;2023-04-25T07:34:21;14.20;77.20
26541;DHT22;14206;50.202;10.948;2023-04-25T07:36:48;15.20;75.60
26541;DHT22;14206;50.202;10.948;2023-04-25T07:39:15;16.00;71.90
26541;DHT22;14206;50.202;10.948;2023-04-25T07:41:43;16.70;69.10
26541;DHT22;14206;50.202;10.948;2023-04-25T07:44:16;17.60;65.80
26541;DHT22;14206;50.202;10.948;2023-04-25T07:46:43;18.40;67.20
26541;DHT22;14206;50.202;10.948;2023-04-25T07:49:10;18.30;65.20
26541;DHT22;14206;50.202;10.948;2023-04-25T07:51:39;17.80;67.20
26541;DHT22;14206;50.202;10.948;2023-04-25T07:54:12;17.40;63.70
26541;DHT22;14206;50.202;10.948;2023-04-25T07:56:44;16.70;66.10
26541;DHT22;14206;50.202;10.948;2023-04-25T07:59:19;16.30;67.60
26541;DHT22;14206;50.202;10.948;2023-04-25T08:01:46;15.80;67.50
26541;DHT22;14206;50.202;10.948;2023-04-25T08:04:14;15.20;67.20
26541;DHT22;14206;50.202;10.948;2023-04-25T08:07:10;14.60;69.70
26541;DHT22;14206;50.202;10.948;2023-04-25T08:09:52;14.20;70.80
26541;DHT22;14206;50.202;10.948;2023-04-25T08:12:24;14.70;70.70
26541;DHT22;14206;50.202;10.948;2023-04-25T08:14:51;14.40;71.30
26541;DHT22;14206;50.202;10.948;2023-04-25T08:17:18;14.00;71.30
26541;DHT22;14206;50.202;10.948;2023-04-25T08:19:45;13.80;71.50
26541;DHT22;14206;50.202;10.948;2023-04-25T08:22:21;13.50;72.00
26541;DHT22;14206;50.202;10.948;2023-04-25T08:25:01;13.30;72.40
26541;DHT22;14206;50.202;10.948;2023-04-25T08:27:28;13.30;73.20
26541;DHT22;14206;50.202;10.948;2023-04-25T08:29:56;13.50;74.20
26541;DHT22;14206;50.202;10.948;2023-04-25T08:32:23;13.80;74.00
26541;DHT22;14206;50.202;10.948;2023-04-25T08:35:08;14.80;72.30
26541;DHT22;14206;50.202;10.948;2023-04-25T08:37:35;15.30;71.40
26541;DHT22;14206;50.202;10.948;2023-04-25T08:40:12;15.30;69.70
26541;DHT22;14206;50.202;10.948;2023-04-25T08:42:43;15.10;68.20
26541;DHT22;14206;50.202;10.948;2023-04-25T08:45:10;15.00;69.40
26541;DHT22;14206;50.202;10.948;2023-04-25T08:47:39;15.30;70.00
26541;DHT22;14206;50.202;10.948;2023-04-25T08:50:07;16.40;67.60
26541;DHT22;14206;50.202;10.948;2023-04-25T08:52:43;16.80;66.30
26541;DHT22;14206;50.202;10.948;2023-04-25T08:55:12;16.60;64.60
26541;DHT22;14206;50.202;10.948;2023-04-25T08:57:42;16.10;62.00
26541;DHT22;14206;50.202;10.948;2023-04-25T09:00:12;15.50;64.50
26541;DHT22;14206;50.202;10.948;2023-04-25T09:02:43;15.50;64.10
26541;DHT22;14206;50.202;10.948;2023-04-25T09:05:13;17.00;64.60
26541;DHT22;14206;50.202;10.948;2023-04-25T09:07:40;17.40;60.00
26541;DHT22;14206;50.202;10.948;2023-04-25T09:10:07;17.90;61.00
26541;DHT22;14206;50.202;10.948;2023-04-25T09:12:36;18.90;61.20
26541;DHT22;14206;50.202;10.948;2023-04-25T09:15:11;20.40;55.70
26541;DHT22;14206;50.202;10.948;2023-04-25T09:17:58;22.00;57.00
26541;DHT22;14206;50.202;10.948;2023-04-25T09:20:31;22.20;52.10
26541;DHT22;14206;50.202;10.948;2023-04-25T09:23:02;22.60;52.80
26541;DHT22;14206;50.202;10.948;2023-04-25T09:25:35;23.50;53.30
26541;DHT22;14206;50.202;10.948;2023-04-25T09:28:08;23.30;50.30
26541;DHT22;14206;50.202;10.948;2023-04-25T09:30:36;23.70;49.70
26541;DHT22;14206;50.202;10.948;2023-04-25T09:33:16;23.00;48.20
26541;DHT22;14206;50.202;10.948;2023-04-25T09:35:47;22.40;49.60
26541;DHT22;14206;50.202;10.948;2023-04-25T09:38:44;22.90;49.20
26541;DHT22;14206;50.202;10.948;2023-04-25T09:41:24;22.70;48.40
26541;DHT22;14206;50.202;10.948;2023-04-25T09:43:57;21.70;49.60
26541;DHT22;14206;50.202;10.948;2023-04-25T09:46:34;20.50;51.10
26541;DHT22;14206;50.202;10.948;2023-04-25T09:49:08;19.40;52.60
26541;DHT22;14206;50.202;10.948;2023-04-25T09:51:54;18.70;54.50
26541;DHT22;14206;50.202;10.948;2023-04-25T09:54:23;18.90;53.60
26541;DHT22;14206;50.202;10.948;2023-04-25T09:56:58;20.10;54.50
26541;DHT22;14206;50.202;10.948;2023-04-25T09:59:28;21.30;50.90
26541;DHT22;14206;50.202;10.948;2023-04-25T10:01:58;20.70;50.80
26541;DHT22;14206;50.202;10.948;2023-04-25T10:04:34;19.70;52.70
26541;DHT22;14206;50.202;10.948;2023-04-25T10:07:18;18.90;53.90
26541;DHT22;14206;50.202;10.948;2023-04-25T10:09:48;18.20;55.90
26541;DHT22;14206;50.202;10.948;2023-04-25T10:12:16;17.70;57.80
26541;DHT22;14206;50.202;10.948;2023-04-25T10:14:44;17.40;57.50
26541;DHT22;14206;50.202;10.948;2023-04-25T10:17:11;17.30;59.10
26541;DHT22;14206;50.202;10.948;2023-04-25T10:19:38;17.30;58.30
26541;DHT22;14206;50.202;10.948;2023-04-25T10:22:17;17.30;59.00
26541;DHT22;14206;50.202;10.948;2023-04-25T10:24:46;17.10;58.00
26541;DHT22;14206;50.202;10.948;2023-04-25T10:27:13;16.70;59.40
26541;DHT22;14206;50.202;10.948;2023-04-25T10:29:41;16.30;60.00
26541;DHT22;14206;50.202;10.948;2023-04-25T10:32:09;15.70;61.10
26541;DHT22;14206;50.202;10.948;2023-04-25T10:34:43;15.30;61.90
26541;DHT22;14206;50.202;10.948;2023-04-25T10:37:13;14.90;62.80
26541;DHT22;14206;50.202;10.948;2023-04-25T10:39:41;14.50;64.10
26541;DHT22;14206;50.202;10.948;2023-04-25T10:42:08;14.30;66.40
26541;DHT22;14206;50.202;10.948;2023-04-25T10:44:37;14.30;65.70
26541;DHT22;14206;50.202;10.948;2023-04-25T10:47:07;14.80;66.10
26541;DHT22;14206;50.202;10.948;2023-04-25T10:52:25;15.00;65.30
26541;DHT22;14206;50.202;10.948;2023-04-25T10:54:57;14.90;64.90
26541;DHT22;14206;50.202;10.948;2023-04-25T11:00:00;14.40;66.00
26541;DHT22;14206;50.202;10.948;2023-04-25T11:02:28;14.20;66.30
26541;DHT22;14206;50.202;10.948;2023-04-25T11:04:55;14.10;66.50
26541;DHT22;14206;50.202;10.948;2023-04-25T11:07:45;13.90;67.50
26541;DHT22;14206;50.202;10.948;2023-04-25T11:10:30;13.90;66.90
26541;DHT22;14206;50.202;10.948;2023-04-25T11:12:58;13.80;68.00
26541;DHT22;14206;50.202;10.948;2023-04-25T11:15:25;14.50;67.90
26541;DHT22;14206;50.202;10.948;2023-04-25T11:17:52;14.90;65.60
26541;DHT22;14206;50.202;10.948;2023-04-25T11:20:20;15.00;65.10
26541;DHT22;14206;50.202;10.948;2023-04-25T11:22:47;14.80;64.50
26541;DHT22;14206;50.202;10.948;2023-04-25T11:25:17;14.60;67.00
26541;DHT22;14206;50.202;10.948;2023-04-25T11:27:52;14.40;67.00
26541;DHT22;14206;50.202;10.948;2023-04-25T11:30:19;14.10;65.80
26541;DHT22;14206;50.202;10.948;2023-04-25T11:32:47;13.90;66.30
26541;DHT22;14206;50.202;10.948;2023-04-25T11:35:14;13.80;67.80
26541;DHT22;14206;50.202;10.948;2023-04-25T11:37:43;13.70;67.50
26541;DHT22;14206;50.202;10.948;2023-04-25T11:40:11;13.70;68.50
26541;DHT22;14206;50.202;10.948;2023-04-25T11:42:39;13.60;66.50
26541;DHT22;14206;50.202;10.948;2023-04-25T11:45:09;13.70;66.90
26541;DHT22;14206;50.202;10.948;2023-04-25T11:47:37;13.80;67.50
26541;DHT22;14206;50.202;10.948;2023-04-25T11:50:06;14.00;67.60
26541;DHT22;14206;50.202;10.948;2023-04-25T11:52:42;14.20;66.40
26541;DHT22;14206;50.202;10.948;2023-04-25T11:55:12;14.40;66.80
26541;DHT22;14206;50.202;10.948;2023-04-25T11:57:40;14.60;64.10
26541;DHT22;14206;50.202;10.948;2023-04-25T12:00:15;14.80;64.30
26541;DHT22;14206;50.202;10.948;2023-04-25T12:02:46;14.90;64.50
26541;DHT22;14206;50.202;10.948;2023-04-25T12:05:15;15.00;64.60
26541;DHT22;14206;50.202;10.948;2023-04-25T12:08:10;15.00;62.90
26541;DHT22;14206;50.202;10.948;2023-04-25T12:10:39;15.10;63.50
26541;DHT22;14206;50.202;10.948;2023-04-25T12:13:24;15.20;61.50
26541;DHT22;14206;50.202;10.948;2023-04-25T12:15:51;15.20;61.70
26541;DHT22;14206;50.202;10.948;2023-04-25T12:18:23;15.30;62.10
26541;DHT22;14206;50.202;10.948;2023-04-25T12:20:52;15.30;61.50
26541;DHT22;14206;50.202;10.948;2023-04-25T12:23:28;15.20;61.80
26541;DHT22;14206;50.202;10.948;2023-04-25T12:25:55;15.20;62.30
26541;DHT22;14206;50.202;10.948;2023-04-25T12:28:24;15.00;61.60
26541;DHT22;14206;50.202;10.948;2023-04-25T12:36:01;14.60;63.90
26541;DHT22;14206;50.202;10.948;2023-04-25T12:38:36;14.50;65.20
26541;DHT22;14206;50.202;10.948;2023-04-25T12:41:03;14.40;65.00
26541;DHT22;14206;50.202;10.948;2023-04-25T12:43:30;14.40;65.70
26541;DHT22;14206;50.202;10.948;2023-04-25T12:45:57;14.20;65.80
26541;DHT22;14206;50.202;10.948;2023-04-25T12:48:24;14.20;66.10
26541;DHT22;14206;50.202;10.948;2023-04-25T12:50:51;14.20;65.70
26541;DHT22;14206;50.202;10.948;2023-04-25T12:53:21;14.10;65.60
26541;DHT22;14206;50.202;10.948;2023-04-25T12:55:49;14.00;65.90
26541;DHT22;14206;50.202;10.948;2023-04-25T12:58:17;13.90;66.50
26541;DHT22;14206;50.202;10.948;2023-04-25T13:00:45;13.80;65.50
26541;DHT22;14206;50.202;10.948;2023-04-25T13:03:12;13.60;66.00
26541;DHT22;14206;50.202;10.948;2023-04-25T13:05:40;13.40;66.40
26541;DHT22;14206;50.202;10.948;2023-04-25T13:08:06;13.40;66.60
26541;DHT22;14206;50.202;10.948;2023-04-25T13:10:33;13.30;67.30
26541;DHT22;14206;50.202;10.948;2023-04-25T13:13:00;13.30;66.90
26541;DHT22;14206;50.202;10.948;2023-04-25T13:15:28;13.30;67.50
26541;DHT22;14206;50.202;10.948;2023-04-25T13:17:55;13.40;67.50
26541;DHT22;14206;50.202;10.948;2023-04-25T13:20:22;13.60;67.50
26541;DHT22;14206;50.202;10.948;2023-04-25T13:22:49;13.60;67.40
26541;DHT22;14206;50.202;10.948;2023-04-25T13:25:16;13.50;66.40
26541;DHT22;14206;50.202;10.948;2023-04-25T13:27:43;13.40;66.70
26541;DHT22;14206;50.202;10.948;2023-04-25T13:30:11;13.30;66.80
26541;DHT22;14206;50.202;10.948;2023-04-25T13:32:39;13.30;67.20
26541;DHT22;14206;50.202;10.948;2023-04-25T13:35:12;13.10;65.40
26541;DHT22;14206;50.202;10.948;2023-04-25T13:37:40;12.80;64.60
26541;DHT22;14206;50.202;10.948;2023-04-25T13:40:09;12.60;64.90
26541;DHT22;14206;50.202;10.948;2023-04-25T13:42:38;12.40;65.50
26541;DHT22;14206;50.202;10.948;2023-04-25T13:45:06;12.10;66.70
26541;DHT22;14206;50.202;10.948;2023-04-25T13:47:34;12.00;67.50
26541;DHT22;14206;50.202;10.948;2023-04-25T13:50:01;11.90;68.20
26541;DHT22;14206;50.202;10.948;2023-04-25T13:52:29;11.90;68.30
26541;DHT22;14206;50.202;10.948;2023-04-25T13:54:57;11.80;68.30
26541;DHT22;14206;50.202;10.948;2023-04-25T13:57:24;11.90;69.60
26541;DHT22;14206;50.202;10.948;2023-04-25T13:59:51;12.00;68.90
26541;DHT22;14206;50.202;10.948;2023-04-25T14:02:19;12.00;69.00
26541;DHT22;14206;50.202;10.948;2023-04-25T14:04:46;12.10;69.40
26541;DHT22;14206;50.202;10.948;2023-04-25T14:07:14;12.30;70.20
26541;DHT22;14206;50.202;10.948;2023-04-25T14:09:44;12.60;70.10
26541;DHT22;14206;50.202;10.948;2023-04-25T14:12:11;13.00;69.20
26541;DHT22;14206;50.202;10.948;2023-04-25T14:14:38;13.20;67.90
26541;DHT22;14206;50.202;10.948;2023-04-25T14:17:14;13.30;68.20
26541;DHT22;14206;50.202;10.948;2023-04-25T14:19:41;13.40;66.50
26541;DHT22;14206;50.202;10.948;2023-04-25T14:22:12;13.50;65.50
26541;DHT22;14206;50.202;10.948;2023-04-25T14:24:39;13.60;64.90
26541;DHT22;14206;50.202;10.948;2023-04-25T14:27:06;13.60;64.70
26541;DHT22;14206;50.202;10.948;2023-04-25T14:29:32;13.70;64.30
26541;DHT22;14206;50.202;10.948;2023-04-25T14:31:59;13.70;65.00
26541;DHT22;14206;50.202;10.948;2023-04-25T14:34:26;13.80;65.10
26541;DHT22;14206;50.202;10.948;2023-04-25T14:36:53;13.80;63.20
26541;DHT22;14206;50.202;10.948;2023-04-25T14:39:20;13.70;63.50
26541;DHT22;14206;50.202;10.948;2023-04-25T14:41:47;13.70;64.70
26541;DHT22;14206;50.202;10.948;2023-04-25T14:44:14;13.60;64.50
26541;DHT22;14206;50.202;10.948;2023-04-25T14:46:41;13.50;63.50
26541;DHT22;14206;50.202;10.948;2023-04-25T14:49:08;13.40;63.20
26541;DHT22;14206;50.202;10.948;2023-04-25T14:51:35;13.30;63.30
26541;DHT22;14206;50.202;10.948;2023-04-25T14:54:02;13.30;63.90
26541;DHT22;14206;50.202;10.948;2023-04-25T14:56:29;13.30;63.20
26541;DHT22;14206;50.202;10.948;2023-04-25T14:58:56;13.40;62.60
26541;DHT22;14206;50.202;10.948;2023-04-25T15:01:23;13.30;62.10
26541;DHT22;14206;50.202;10.948;2023-04-25T15:03:50;13.20;63.10
26541;DHT22;14206;50.202;10.948;2023-04-25T15:06:18;13.20;63.50
26541;DHT22;14206;50.202;10.948;2023-04-25T15:08:45;13.20;65.20
26541;DHT22;14206;50.202;10.948;2023-04-25T15:11:12;13.30;63.40
26541;DHT22;14206;50.202;10.948;2023-04-25T15:13:38;13.30;62.50
26541;DHT22;14206;50.202;10.948;2023-04-25T15:16:05;13.20;62.30
26541;DHT22;14206;50.202;10.948;2023-04-25T15:18:32;13.30;61.70
26541;DHT22;14206;50.202;10.948;2023-04-25T15:20:59;13.40;62.70
26541;DHT22;14206;50.202;10.948;2023-04-25T15:23:26;13.40;61.20
26541;DHT22;14206;50.202;10.948;2023-04-25T15:25:55;13.50;63.30
26541;DHT22;14206;50.202;10.948;2023-04-25T15:28:22;13.60;60.20
26541;DHT22;14206;50.202;10.948;2023-04-25T15:30:49;13.70;57.70
26541;DHT22;14206;50.202;10.948;2023-04-25T15:33:16;13.50;58.70
26541;DHT22;14206;50.202;10.948;2023-04-25T15:35:42;13.30;57.50
26541;DHT22;14206;50.202;10.948;2023-04-25T15:38:09;13.10;58.00
26541;DHT22;14206;50.202;10.948;2023-04-25T15:40:40;12.80;58.70
26541;DHT22;14206;50.202;10.948;2023-04-25T15:43:07;12.60;60.20
26541;DHT22;14206;50.202;10.948;2023-04-25T15:45:36;12.50;61.40
26541;DHT22;14206;50.202;10.948;2023-04-25T15:48:04;12.30;60.30
26541;DHT22;14206;50.202;10.948;2023-04-25T15:50:30;12.20;60.50
26541;DHT22;14206;50.202;10.948;2023-04-25T15:52:58;12.00;61.80